Howell, MI

12:32 PM EDT on June 26, 2017 (GMT -0400)
Livingston County

Weather History for KOZW - March, 2012

Change the Weather History Date:

Tuesday, March 20, 2012

  Actual Average Record
Temperature  
Mean Temperature 68 °F -  
Max Temperature 81 °F 43 °F 81 °F (2012)
Min Temperature 55 °F 26 °F 16 °F (2013)
Cooling Degree Days 3    
Growing Degree Days 18 (Base 50)    
Moisture  
Dew Point 54 °F    
Average Humidity 68    
Maximum Humidity 96    
Minimum Humidity 35    
Precipitation  
Precipitation 0.00 in - - ()
Sea Level Pressure  
Sea Level Pressure 30.11 in    
Wind  
Wind Speed 7 mph (SSE)    
Max Wind Speed 10 mph    
Max Gust Speed -    
Visibility 9 miles    
Events      
Averages and records for this station are not official NWS values.
T = Trace of Precipitation, MM = Missing Value Source: NWS Daily Summary

Daily Weather History Graph

Daily Weather History Graph

Search for Another Location

Airport or City:

Trip Planner

Search our weather history database for the weather conditions in past years. The results will help you decide how hot, cold, wet, or windy it might be!

Date:

Astronomy

Mar. 20, 2012 Rise Set
Actual Time 7:38 AM EDT 7:48 PM EDT
Civil Twilight 7:10 AM EDT 8:16 PM EDT
Nautical Twilight 6:37 AM EDT 8:49 PM EDT
Astronomical Twilight 6:03 AM EDT 9:23 PM EDT
Moon 6:21 AM EDT (3/20) 6:14 PM EDT (3/20)
Length of Visible Light 13h 06m
Length of Day
12h 10m
Waning Crescent, 4% of the Moon is Illuminated
Mar 20
Waning Crescent
Mar 22
New
Mar 30
First Quarter
Apr 6
Full
Apr 13
Last Quarter

Hourly Weather History & Observations

Time (EDT) Temp. Dew Point Humidity Pressure Visibility Wind Dir Wind Speed Gust Speed Precip Events Conditions
12:14 AM 61.7 °F 55.4 °F 80% 30.07 in 10.0 mi SE 8.1 mph - N/A   Clear
12:34 AM 61.7 °F 55.4 °F 80% 30.07 in 10.0 mi SE 9.2 mph - N/A   Clear
12:55 AM 61.2 °F 55.4 °F 81% 30.07 in 10.0 mi SE 6.9 mph - N/A   Clear
1:14 AM 61.0 °F 55.4 °F 82% 30.07 in 10.0 mi SE 8.1 mph - N/A   Clear
1:34 AM 61.0 °F 55.4 °F 82% 30.07 in 10.0 mi SE 9.2 mph - N/A   Clear
1:55 AM 61.0 °F 55.4 °F 82% 30.07 in 10.0 mi SE 6.9 mph - N/A   Clear
2:14 AM 60.8 °F 55.4 °F 82% 30.07 in 10.0 mi SE 9.2 mph - N/A   Clear
2:34 AM 60.8 °F 55.6 °F 83% 30.08 in 10.0 mi SE 8.1 mph - N/A   Clear
2:54 AM 60.3 °F 55.4 °F 84% 30.07 in 10.0 mi SE 9.2 mph - N/A   Clear
3:14 AM 59.9 °F 55.2 °F 84% 30.07 in 10.0 mi SE 6.9 mph - N/A   Clear
3:35 AM 59.0 °F 55.0 °F 87% 30.08 in 10.0 mi SE 6.9 mph - N/A   Clear
3:54 AM 59.4 °F 55.4 °F 87% 30.07 in 10.0 mi SE 6.9 mph - N/A   Clear
4:14 AM 59.0 °F 55.0 °F 87% 30.08 in 10.0 mi SE 5.8 mph - N/A   Clear
4:34 AM 59.0 °F 55.4 °F 88% 30.08 in 10.0 mi SE 4.6 mph - N/A   Clear
4:54 AM 59.0 °F 55.4 °F 88% 30.08 in 10.0 mi SE 4.6 mph - N/A   Clear
5:14 AM 58.5 °F 54.9 °F 88% 30.08 in 10.0 mi SE 3.5 mph - N/A   Clear
5:34 AM 57.4 °F 54.5 °F 90% 30.09 in 10.0 mi SE 5.8 mph - N/A   Clear
5:55 AM 57.2 °F 54.7 °F 91% 30.10 in 7.0 mi SE 5.8 mph - N/A   Clear
6:14 AM 56.3 °F 54.1 °F 92% 30.10 in 7.0 mi SE 4.6 mph - N/A   Clear
6:34 AM 56.1 °F 53.8 °F 92% 30.11 in 7.0 mi SE 5.8 mph - N/A   Clear
6:55 AM 55.4 °F 53.6 °F 94% 30.11 in 5.0 mi SE 4.6 mph - N/A   Clear
7:14 AM 55.4 °F 53.6 °F 94% 30.12 in 5.0 mi SE 3.5 mph - N/A   Clear
7:34 AM 55.4 °F 53.8 °F 94% 30.12 in 5.0 mi SE 3.5 mph - N/A   Clear
7:55 AM 55.4 °F 54.0 °F 95% 30.12 in 3.0 mi ESE 4.6 mph - N/A   Clear
8:14 AM 56.1 °F 54.9 °F 96% 30.13 in 3.0 mi SE 3.5 mph - N/A   Clear
8:35 AM 57.0 °F 55.6 °F 95% 30.13 in 3.0 mi SE 3.5 mph - N/A   Clear
8:54 AM 58.3 °F 56.8 °F 95% 30.14 in 4.0 mi SE 4.6 mph - N/A   Clear
9:14 AM 60.3 °F 58.1 °F 93% 30.14 in 5.0 mi SE 6.9 mph - N/A   Clear
9:35 AM 61.9 °F 58.3 °F 88% 30.15 in 7.0 mi SE 6.9 mph - N/A   Clear
9:54 AM 64.8 °F 58.6 °F 81% 30.15 in 10.0 mi SSE 6.9 mph - N/A   Clear
10:14 AM 66.6 °F 57.2 °F 72% 30.15 in 10.0 mi SSE 9.2 mph - N/A   Clear
10:35 AM 68.9 °F 56.5 °F 65% 30.15 in 10.0 mi South 6.9 mph - N/A   Clear
10:54 AM 70.3 °F 56.1 °F 61% 30.16 in 10.0 mi SSE 8.1 mph - N/A   Clear
11:14 AM 72.3 °F 55.0 °F 54% 30.15 in 10.0 mi South 9.2 mph - N/A   Clear
11:35 AM 74.3 °F 54.9 °F 51% 30.15 in 10.0 mi SSE 10.4 mph - N/A   Clear
11:54 AM 74.5 °F 53.8 °F 48% 30.15 in 10.0 mi South 8.1 mph - N/A   Clear
12:15 PM 75.9 °F 54.5 °F 47% 30.14 in 10.0 mi South 8.1 mph - N/A   Clear
12:35 PM 77.0 °F 54.5 °F 46% 30.14 in 10.0 mi SE 8.1 mph - N/A   Clear
12:54 PM 77.2 °F 54.3 °F 45% 30.14 in 10.0 mi South 8.1 mph - N/A   Clear
1:15 PM 77.5 °F 53.8 °F 44% 30.14 in 10.0 mi SSW 5.8 mph - N/A   Clear
2:15 PM 78.8 °F 53.2 °F 41% 30.12 in 10.0 mi South 8.1 mph - N/A   Clear
2:34 PM 79.9 °F 52.3 °F 38% 30.12 in 10.0 mi SSE 9.2 mph - N/A   Clear
2:54 PM 81.0 °F 52.2 °F 37% 30.11 in 10.0 mi South 10.4 mph - N/A   Clear
3:15 PM 80.6 °F 51.3 °F 36% 30.11 in 10.0 mi SSW 9.2 mph - N/A   Clear
3:34 PM 79.7 °F 51.8 °F 38% 30.10 in 10.0 mi South 10.4 mph - N/A   Scattered Clouds
3:54 PM 80.8 °F 51.8 °F 36% 30.10 in 10.0 mi SSW 8.1 mph - N/A   Clear
4:15 PM 79.7 °F 51.6 °F 38% 30.10 in 10.0 mi SSW 8.1 mph - N/A   Clear
4:34 PM 80.8 °F 52.9 °F 38% 30.10 in 10.0 mi South 9.2 mph - N/A   Scattered Clouds
4:55 PM 81.5 °F 51.6 °F 35% 30.09 in 10.0 mi SSW 10.4 mph - N/A   Clear
5:34 PM 79.7 °F 51.4 °F 37% 30.09 in 10.0 mi South 9.2 mph - N/A   Clear
5:55 PM 79.0 °F 52.5 °F 40% 30.09 in 10.0 mi South 6.9 mph - N/A   Clear
6:14 PM 78.3 °F 53.2 °F 42% 30.09 in 10.0 mi South 8.1 mph - N/A   Scattered Clouds
6:34 PM 77.7 °F 52.7 °F 42% 30.10 in 10.0 mi South 8.1 mph - N/A   Scattered Clouds
6:55 PM 76.8 °F 52.7 °F 43% 30.10 in 10.0 mi South 5.8 mph - N/A   Clear
7:34 PM 75.2 °F 53.2 °F 46% 30.11 in 10.0 mi South 4.6 mph - N/A   Clear
7:55 PM 74.3 °F 52.7 °F 47% 30.11 in 10.0 mi South 4.6 mph - N/A   Clear
8:14 PM 73.2 °F 52.0 °F 47% 30.11 in 10.0 mi SE 5.8 mph - N/A   Clear
8:35 PM 68.7 °F 52.9 °F 57% 30.12 in 10.0 mi SE 6.9 mph - N/A   Clear
8:55 PM 70.7 °F 54.0 °F 55% 30.12 in 10.0 mi SSE 8.1 mph - N/A   Clear
9:14 PM 69.4 °F 53.8 °F 57% 30.12 in 10.0 mi SSE 6.9 mph - N/A   Clear
9:35 PM 68.5 °F 53.8 °F 59% 30.12 in 10.0 mi SSE 5.8 mph - N/A   Clear
9:55 PM 67.6 °F 53.8 °F 61% 30.13 in 10.0 mi SSE 6.9 mph - N/A   Clear
10:14 PM 68.0 °F 53.6 °F 60% 30.13 in 10.0 mi SE 6.9 mph - N/A   Clear
10:35 PM 66.4 °F 53.2 °F 63% 30.13 in 10.0 mi SSE 8.1 mph - N/A   Clear
10:54 PM 66.9 °F 53.6 °F 62% 30.14 in 10.0 mi SSE 8.1 mph - N/A   Clear
11:14 PM 64.4 °F 53.1 °F 67% 30.14 in 10.0 mi SE 8.1 mph - N/A   Clear
11:35 PM 65.5 °F 53.2 °F 65% 30.15 in 10.0 mi SE 9.2 mph - N/A   Clear
11:54 PM 64.9 °F 52.7 °F 64% 30.15 in 10.0 mi SSE 6.9 mph - N/A   Clear